Air Quality Table

TIMESTAMP NO2 SO2 PM10 PM2.5 CO TEMP HUM AIRPRES WS WD NO
2022-08-08 18:00 9.48 µg/m3 0.65 µg/m3 N/A N/A N/A 30.75 °C 68.78 % 1,009.93 mbar 0.73 m/s 169.24 Deg 1.44 µg/m3
2022-08-08 17:00 6.1 µg/m3 2.45 µg/m3 N/A N/A N/A 30.87 °C 68.13 % 1,009.98 mbar 0.96 m/s 328.77 Deg 1.47 µg/m3
2022-08-08 16:00 6.33 µg/m3 2.6 µg/m3 N/A N/A N/A 30.88 °C 69.85 % 1,009.79 mbar 1.11 m/s 203.13 Deg 2.26 µg/m3
2022-08-08 15:00 5.27 µg/m3 2.87 µg/m3 N/A N/A N/A 31.05 °C 70.36 % 1,009.87 mbar 0.88 m/s 274.43 Deg 1.67 µg/m3
2022-08-08 14:00 6.99 µg/m3 2.3 µg/m3 N/A N/A N/A 30.83 °C 72.24 % 1,010.38 mbar 1.08 m/s 200.6 Deg 4.5 µg/m3
2022-08-08 13:00 6.9 µg/m3 2.51 µg/m3 N/A N/A N/A 30.29 °C 75.24 % 1,010.27 mbar 1.34 m/s 155.38 Deg 1.28 µg/m3
2022-08-08 12:00 7.84 µg/m3 2.14 µg/m3 N/A N/A N/A 30.2 °C 75.59 % 1,010.47 mbar 1.11 m/s 158.33 Deg 1.55 µg/m3
2022-08-08 11:00 13.87 µg/m3 3.66 µg/m3 N/A N/A N/A 30.05 °C 73.01 % 1,010.50 mbar 0.95 m/s 175.15 Deg 2.68 µg/m3
2022-08-08 10:00 13.11 µg/m3 4.05 µg/m3 N/A N/A N/A 29.99 °C 71.56 % 1,010.42 mbar 0.74 m/s 216.88 Deg 3.8 µg/m3
2022-08-08 09:00 22.73 µg/m3 2.27 µg/m3 N/A N/A N/A 29.66 °C 65.87 % 1,010.07 mbar 0.69 m/s 246.3 Deg 7.93 µg/m3
2022-08-08 08:00 37.86 µg/m3 2.59 µg/m3 N/A N/A N/A 28.17 °C 79.05 % 1,009.67 mbar 0.7 m/s 271.2 Deg 10.64 µg/m3
2022-08-08 07:00 54.82 µg/m3 4.29 µg/m3 N/A N/A N/A 27.1 °C 81.69 % 1,009.20 mbar 0.36 m/s 210.18 Deg 68.65 µg/m3
2022-08-08 06:00 47.86 µg/m3 4.14 µg/m3 N/A N/A N/A 26.17 °C 82.84 % 1,008.79 mbar 1.56 m/s 214.37 Deg 61.49 µg/m3
2022-08-08 05:00 40.37 µg/m3 2.71 µg/m3 N/A N/A N/A 26.6 °C 84.09 % 1,008.41 mbar 0.68 m/s 231.15 Deg 13.61 µg/m3
2022-08-08 04:00 44.64 µg/m3 2.06 µg/m3 N/A N/A N/A 26.93 °C 83.93 % 1,008.11 mbar 1.29 m/s 216.85 Deg 12.71 µg/m3
2022-08-08 03:00 53.71 µg/m3 2.11 µg/m3 N/A N/A N/A 26.85 °C 86.05 % 1,008.21 mbar 0.81 m/s 146.17 Deg 32.73 µg/m3
2022-08-08 02:00 15.82 µg/m3 2.27 µg/m3 N/A N/A N/A 27.34 °C 86.48 % 1,008.32 mbar 1.91 m/s 201.88 Deg 0.96 µg/m3
2022-08-08 01:00 5.12 µg/m3 2.28 µg/m3 N/A N/A N/A 27.6 °C 84.29 % 1,008.58 mbar 0.8 m/s 273.71 Deg 0.41 µg/m3
2022-08-08 00:00 8.46 µg/m3 1.86 µg/m3 N/A N/A N/A 27.63 °C 85.52 % 1,008.91 mbar 2.37 m/s 244.43 Deg 0.82 µg/m3
2022-08-07 23:00 19.49 µg/m3 2.05 µg/m3 N/A N/A N/A 28.01 °C 82.88 % 1,008.98 mbar 2.1 m/s 226.54 Deg 3.04 µg/m3
2022-08-07 22:00 11.89 µg/m3 2.38 µg/m3 N/A N/A N/A 28.44 °C 75.42 % 1,008.96 mbar 1.54 m/s 263.88 Deg 1.17 µg/m3
2022-08-07 21:00 12.61 µg/m3 2.32 µg/m3 N/A N/A N/A 28.13 °C 78.15 % 1,008.84 mbar 1.17 m/s 289.33 Deg 1.54 µg/m3
2022-08-07 20:00 10.46 µg/m3 2.33 µg/m3 N/A N/A N/A 28.58 °C 78.18 % 1,008.42 mbar 1.41 m/s 289.94 Deg 1.04 µg/m3
2022-08-07 19:00 13.29 µg/m3 2.37 µg/m3 N/A N/A N/A 29.04 °C 72.19 % 1,007.97 mbar 1.93 m/s 330.23 Deg 2.25 µg/m3
2022-08-07 18:00 15 µg/m3 2.13 µg/m3 N/A N/A N/A 30.01 °C 64.93 % 1,007.57 mbar 1.83 m/s 335.78 Deg 3.34 µg/m3
2022-08-07 17:00 8.6 µg/m3 2.24 µg/m3 N/A N/A N/A 31.25 °C 61.41 % 1,007.78 mbar 1.11 m/s 330.06 Deg 1.69 µg/m3
2022-08-07 16:00 5.36 µg/m3 1.87 µg/m3 N/A N/A N/A 31.5 °C 60.56 % 1,007.90 mbar 0.98 m/s 197.38 Deg 1.02 µg/m3
2022-08-07 15:00 4.87 µg/m3 2.37 µg/m3 N/A N/A N/A 31.53 °C 57.63 % 1,008.15 mbar 0.89 m/s 283.12 Deg 1.26 µg/m3
2022-08-07 14:00 4.37 µg/m3 1.57 µg/m3 N/A N/A N/A 31.17 °C 60.57 % 1,008.55 mbar 0.79 m/s 210.75 Deg 1.95 µg/m3
2022-08-07 13:00 4.22 µg/m3 1.76 µg/m3 N/A N/A N/A 30.41 °C 68.89 % 1,009.01 mbar 0.76 m/s 178.52 Deg 1.69 µg/m3
2022-08-07 12:00 5.15 µg/m3 1.34 µg/m3 N/A N/A N/A 30.18 °C 69.6 % 1,009.34 mbar 0.75 m/s 185.07 Deg 1.45 µg/m3
2022-08-07 11:00 6.57 µg/m3 1.42 µg/m3 N/A N/A N/A 29.83 °C 70.07 % 1,009.61 mbar 0.84 m/s 256.82 Deg 1.68 µg/m3
2022-08-07 10:00 9.03 µg/m3 1.92 µg/m3 N/A N/A N/A 29.4 °C 71.85 % 1,009.68 mbar 0.97 m/s 260.99 Deg 2.38 µg/m3
2022-08-07 09:00 9.91 µg/m3 1.45 µg/m3 N/A N/A N/A 28.9 °C 77.29 % 1,009.27 mbar 0.73 m/s 137.33 Deg 2.07 µg/m3
2022-08-07 08:00 11.95 µg/m3 1.32 µg/m3 N/A N/A N/A 28.24 °C 82.7 % 1,008.91 mbar 0.87 m/s 162.87 Deg 1.25 µg/m3
2022-08-07 07:00 10.44 µg/m3 2.03 µg/m3 N/A N/A N/A 27.75 °C 83.96 % 1,008.48 mbar 1.01 m/s 285.94 Deg 0.76 µg/m3
2022-08-07 06:00 29.27 µg/m3 1.8 µg/m3 N/A N/A N/A 26.9 °C 80.07 % 1,008.15 mbar 1.11 m/s 257.13 Deg 1.61 µg/m3
2022-08-07 05:00 21.37 µg/m3 2.35 µg/m3 N/A N/A N/A 26.98 °C 82.08 % 1,007.94 mbar 2.12 m/s 231 Deg 1.51 µg/m3
2022-08-07 04:00 9.03 µg/m3 1.96 µg/m3 N/A N/A N/A 27.74 °C 75.91 % 1,007.97 mbar 1.05 m/s 275.22 Deg 0.58 µg/m3
2022-08-07 03:00 10.37 µg/m3 2.31 µg/m3 N/A N/A N/A 27.71 °C 73.77 % 1,008.15 mbar 1.65 m/s 279.8 Deg 0.7 µg/m3
2022-08-07 02:00 6.87 µg/m3 2.47 µg/m3 N/A N/A N/A 27.79 °C 77.46 % 1,008.53 mbar 3.24 m/s 239.83 Deg 0.4 µg/m3
2022-08-07 01:00 10.34 µg/m3 2.42 µg/m3 N/A N/A N/A 27.74 °C 78.66 % 1,009.15 mbar 3.84 m/s 230.67 Deg 0.83 µg/m3
2022-08-07 00:00 6.91 µg/m3 2.25 µg/m3 N/A N/A N/A 27.83 °C 79.14 % 1,009.73 mbar 4.12 m/s 226.64 Deg 2.3 µg/m3
2022-08-06 23:00 8.53 µg/m3 2.5 µg/m3 N/A N/A N/A 28.17 °C 76.91 % 1,009.99 mbar 4.22 m/s 238.56 Deg 1.59 µg/m3
2022-08-06 22:00 7.13 µg/m3 2.51 µg/m3 N/A N/A N/A 28.36 °C 75.82 % 1,010.14 mbar 3.6 m/s 249.2 Deg 0.4 µg/m3
2022-08-06 21:00 6.35 µg/m3 2.51 µg/m3 N/A N/A N/A 28.63 °C 75 % 1,010.13 mbar 3.49 m/s 260.83 Deg 0.69 µg/m3
2022-08-06 20:00 6.34 µg/m3 2.59 µg/m3 N/A N/A N/A 29.02 °C 71.52 % 1,009.82 mbar 4.58 m/s 268.75 Deg 0.92 µg/m3

It is to be noted that the data is provisional and subject to quality assurance procedures. For validated data kindly refer your request to contact.air@era.org.mt